Time;durP1;ratioP1;P1;durP2;ratioP2;P2;SDS_P1;SDS_P2;PMS_P1;PMS_P2;Temp;Humidity;BMP_temperature;BMP_pressure;BME280_temperature;BME280_humidity;BME280_pressure;Samples;Min_cycle;Max_cycle;Signal;HPM_P1;HPM_P2
2023/09/08 00:01:08;;;;;;;7.50;3.15;;;18.20;98.40;;;;;;5036561;28;20045;-77
2023/09/08 00:03:35;;;;;;;6.05;3.17;;;18.20;98.50;;;;;;5067905;28;20041;-77
2023/09/08 00:06:04;;;;;;;7.35;3.20;;;18.10;98.50;;;;;;5059822;28;20131;-77
2023/09/08 00:08:31;;;;;;;7.35;2.92;;;18.10;98.70;;;;;;5073446;28;20049;-77
2023/09/08 00:10:59;;;;;;;5.88;3.47;;;18.10;99.00;;;;;;5054217;28;20041;-77
2023/09/08 00:13:26;;;;;;;5.82;3.05;;;18.10;98.90;;;;;;5051493;28;20137;-76
2023/09/08 00:15:53;;;;;;;7.25;3.65;;;18.00;99.00;;;;;;5052907;28;20061;-77
2023/09/08 00:18:20;;;;;;;6.40;2.90;;;18.10;99.30;;;;;;5058422;28;20037;-77
2023/09/08 00:20:47;;;;;;;6.35;3.40;;;18.10;99.20;;;;;;5055796;28;20045;-77
2023/09/08 00:23:14;;;;;;;5.95;3.33;;;18.10;99.00;;;;;;5055489;28;20146;-77
2023/09/08 00:25:41;;;;;;;6.78;3.13;;;18.10;99.30;;;;;;5070559;28;20406;-77
2023/09/08 00:28:08;;;;;;;7.13;3.20;;;18.10;99.30;;;;;;5062596;28;20537;-77
2023/09/08 00:30:36;;;;;;;9.98;3.03;;;18.10;99.80;;;;;;5071542;28;20057;-77
2023/09/08 00:33:03;;;;;;;6.32;3.28;;;18.10;99.90;;;;;;5061955;28;20052;-77
2023/09/08 00:35:30;;;;;;;8.07;3.15;;;18.10;99.80;;;;;;5056100;28;20716;-77
2023/09/08 00:37:57;;;;;;;5.00;2.92;;;18.00;99.80;;;;;;5046909;28;20060;-77
2023/09/08 00:40:27;;;;;;;6.40;3.33;;;18.00;99.60;;;;;;5073149;28;20144;-77
2023/09/08 00:42:55;;;;;;;5.18;2.72;;;18.00;99.90;;;;;;5056977;28;20045;-77
2023/09/08 00:45:23;;;;;;;7.40;3.95;;;18.00;99.90;;;;;;5071379;28;20282;-77
2023/09/08 00:47:50;;;;;;;7.30;3.97;;;18.00;99.90;;;;;;5069531;28;20044;-77
2023/09/08 00:50:18;;;;;;;6.82;3.35;;;18.00;99.90;;;;;;5057411;28;20037;-77
2023/09/08 00:52:45;;;;;;;6.47;3.83;;;18.00;99.90;;;;;;5073478;28;20106;-77
2023/09/08 00:55:13;;;;;;;7.25;3.63;;;18.00;99.90;;;;;;5069515;28;20045;-77
2023/09/08 00:57:40;;;;;;;7.57;4.47;;;18.00;99.90;;;;;;5041321;28;20077;-76
2023/09/08 01:00:08;;;;;;;7.65;4.28;;;18.10;99.90;;;;;;5050917;28;20060;-77
2023/09/08 01:02:35;;;;;;;6.13;3.60;;;18.10;99.90;;;;;;5075926;28;20057;-77
2023/09/08 01:05:04;;;;;;;5.97;3.50;;;18.00;99.90;;;;;;5065168;28;20681;-77
2023/09/08 01:07:32;;;;;;;7.47;4.28;;;17.90;99.90;;;;;;5057561;28;20136;-77
2023/09/08 01:10:04;;;;;;;7.45;3.75;;;18.00;99.90;;;;;;5075798;28;20056;-77
2023/09/08 01:12:31;;;;;;;9.10;3.47;;;18.00;99.90;;;;;;5047968;28;20055;-76
2023/09/08 01:14:59;;;;;;;6.82;3.90;;;18.00;99.90;;;;;;5060686;28;20373;-77
2023/09/08 01:17:26;;;;;;;5.72;3.55;;;18.00;99.90;;;;;;5068115;28;20048;-77
2023/09/08 01:19:57;;;;;;;5.68;3.05;;;18.00;99.90;;;;;;5073484;28;20483;-77
2023/09/08 01:23:15;;;;;;;6.22;3.50;;;18.00;99.90;;;;;;5058120;28;20053;-77
2023/09/08 01:25:59;;;;;;;5.70;3.42;;;18.00;99.90;;;;;;5042190;28;20248;-77
2023/09/08 01:28:26;;;;;;;6.75;3.10;;;17.90;99.90;;;;;;5059758;28;20040;-77
2023/09/08 01:30:55;;;;;;;5.10;3.30;;;17.90;99.90;;;;;;5057314;28;20060;-77
2023/09/08 01:33:24;;;;;;;7.18;3.40;;;17.90;99.90;;;;;;5047404;28;20055;-77
2023/09/08 01:35:52;;;;;;;6.78;3.30;;;17.90;99.90;;;;;;5061479;28;20130;-77
2023/09/08 01:38:21;;;;;;;8.80;3.72;;;17.80;99.90;;;;;;5054043;28;20037;-77
2023/09/08 01:40:49;;;;;;;6.70;3.60;;;17.80;99.90;;;;;;5071512;28;20117;-77
2023/09/08 01:43:16;;;;;;;6.30;3.58;;;17.80;99.90;;;;;;5057859;28;20138;-77
2023/09/08 01:45:43;;;;;;;6.72;3.53;;;17.80;99.90;;;;;;5074506;28;20044;-77
2023/09/08 01:48:10;;;;;;;7.03;3.50;;;17.80;99.90;;;;;;5056674;28;20044;-77
2023/09/08 01:50:37;;;;;;;7.80;3.38;;;17.80;99.90;;;;;;5059869;28;20095;-77
2023/09/08 01:53:05;;;;;;;8.40;3.35;;;17.90;99.90;;;;;;5064287;28;20036;-77
2023/09/08 01:55:32;;;;;;;7.35;3.58;;;17.90;99.90;;;;;;5058878;28;20045;-77
2023/09/08 01:57:59;;;;;;;5.53;3.35;;;17.80;99.90;;;;;;5063338;28;20110;-77
2023/09/08 02:00:27;;;;;;;6.75;3.72;;;17.80;99.90;;;;;;5074961;28;20389;-77
2023/09/08 02:02:54;;;;;;;6.68;3.67;;;17.70;99.90;;;;;;5064631;28;20122;-77
2023/09/08 02:05:22;;;;;;;5.93;3.50;;;17.70;99.90;;;;;;5063747;28;20045;-77
2023/09/08 02:07:49;;;;;;;7.80;3.67;;;17.70;99.90;;;;;;5060121;28;20037;-77
2023/09/08 02:10:17;;;;;;;11.43;4.28;;;17.70;99.90;;;;;;5062699;28;20041;-77
2023/09/08 02:12:46;;;;;;;7.55;3.85;;;17.70;99.90;;;;;;5072135;28;20047;-77
2023/09/08 02:15:13;;;;;;;8.48;3.70;;;17.60;99.90;;;;;;5064110;28;20041;-76
2023/09/08 02:17:41;;;;;;;5.43;3.33;;;17.60;99.90;;;;;;5061451;28;20044;-77
2023/09/08 02:20:10;;;;;;;8.85;4.30;;;17.50;99.90;;;;;;5065006;28;20036;-77
2023/09/08 02:22:37;;;;;;;5.38;3.30;;;17.60;99.90;;;;;;5074069;28;20083;-77
2023/09/08 02:25:05;;;;;;;7.88;3.63;;;17.50;99.90;;;;;;5061037;28;20160;-77
2023/09/08 02:27:32;;;;;;;6.70;3.25;;;17.50;99.90;;;;;;5064890;28;20119;-77
2023/09/08 02:29:59;;;;;;;5.60;2.95;;;17.60;99.90;;;;;;5043537;28;20392;-77
2023/09/08 02:32:29;;;;;;;5.55;3.50;;;17.50;99.90;;;;;;5072721;28;20040;-77
2023/09/08 02:34:57;;;;;;;6.82;3.70;;;17.50;99.90;;;;;;5076066;28;20582;-77
2023/09/08 02:37:24;;;;;;;6.15;3.17;;;17.50;99.90;;;;;;5071053;28;20064;-77
2023/09/08 02:39:51;;;;;;;7.00;3.40;;;17.50;99.90;;;;;;5045140;28;20053;-77
2023/09/08 02:42:18;;;;;;;10.73;4.28;;;17.50;99.90;;;;;;5063678;28;20141;-77
2023/09/08 02:44:45;;;;;;;6.07;3.15;;;17.50;99.90;;;;;;5059223;28;20037;-77
2023/09/08 02:47:12;;;;;;;6.20;3.92;;;17.50;99.90;;;;;;5062292;28;20126;-77
2023/09/08 02:49:43;;;;;;;5.40;2.90;;;17.50;99.90;;;;;;5059397;28;20135;-77
2023/09/08 02:52:10;;;;;;;5.72;3.17;;;17.50;99.90;;;;;;5057257;28;20052;-77
2023/09/08 02:54:37;;;;;;;5.95;3.53;;;17.50;99.90;;;;;;5072653;28;20064;-77
2023/09/08 02:57:05;;;;;;;6.43;4.00;;;17.40;99.90;;;;;;5062943;28;20127;-77
2023/09/08 02:59:33;;;;;;;6.78;3.78;;;17.40;99.90;;;;;;5060258;28;20088;-77
2023/09/08 03:02:01;;;;;;;6.57;3.70;;;17.40;99.90;;;;;;5053107;28;20539;-77
2023/09/08 03:04:28;;;;;;;5.47;3.47;;;17.40;99.90;;;;;;5070014;28;20052;-77
2023/09/08 03:06:56;;;;;;;6.57;3.75;;;17.40;99.90;;;;;;5072534;28;20948;-77
2023/09/08 03:09:23;;;;;;;8.05;4.38;;;17.30;99.90;;;;;;5063981;28;20049;-77
2023/09/08 03:11:51;;;;;;;9.52;4.18;;;17.30;99.90;;;;;;5061915;28;20544;-77
2023/09/08 03:14:18;;;;;;;7.32;3.97;;;17.10;99.90;;;;;;5061731;28;20102;-77
2023/09/08 03:16:45;;;;;;;6.97;3.80;;;17.20;99.90;;;;;;5075754;28;20381;-77
2023/09/08 03:19:12;;;;;;;6.43;3.75;;;17.30;99.90;;;;;;5074256;28;20136;-77
2023/09/08 03:21:39;;;;;;;6.10;3.90;;;17.30;99.90;;;;;;5078534;28;20480;-77
2023/09/08 03:24:07;;;;;;;6.57;4.00;;;17.30;99.90;;;;;;5048817;28;20052;-77
2023/09/08 03:26:34;;;;;;;10.85;4.53;;;17.30;99.90;;;;;;5076006;28;20119;-76
2023/09/08 03:29:01;;;;;;;11.43;4.53;;;17.20;99.90;;;;;;5049174;28;22796;-77
2023/09/08 03:31:30;;;;;;;6.20;3.85;;;17.10;99.90;;;;;;5047584;28;20051;-77
2023/09/08 03:33:58;;;;;;;8.52;4.25;;;17.10;99.90;;;;;;5056520;28;20036;-77
2023/09/08 03:36:25;;;;;;;8.32;3.85;;;17.20;99.90;;;;;;5060772;28;20036;-77
2023/09/08 03:38:52;;;;;;;6.72;4.00;;;17.30;99.90;;;;;;5059430;28;20047;-77
2023/09/08 03:41:20;;;;;;;7.07;3.90;;;17.20;99.90;;;;;;5058721;28;20504;-77
2023/09/08 03:43:49;;;;;;;7.88;4.53;;;17.20;99.90;;;;;;5068934;28;20052;-77
2023/09/08 03:46:16;;;;;;;8.05;4.18;;;17.30;99.90;;;;;;5052443;28;20037;-77
2023/09/08 03:48:44;;;;;;;6.30;3.75;;;17.30;99.90;;;;;;5073172;28;20041;-77
2023/09/08 03:51:11;;;;;;;7.47;3.83;;;17.30;99.90;;;;;;5071669;28;20049;-77
2023/09/08 03:53:38;;;;;;;7.88;3.92;;;17.20;99.90;;;;;;5045771;28;20759;-77
2023/09/08 03:56:06;;;;;;;9.02;3.90;;;17.30;99.90;;;;;;5069895;28;20049;-77
2023/09/08 03:58:34;;;;;;;8.23;4.22;;;17.20;99.90;;;;;;5060294;28;20075;-77
2023/09/08 04:01:01;;;;;;;7.03;4.88;;;17.20;99.90;;;;;;5068240;28;22793;-77
2023/09/08 04:03:28;;;;;;;8.52;4.13;;;17.20;99.90;;;;;;5058801;28;20143;-77
2023/09/08 04:05:56;;;;;;;7.82;4.38;;;17.20;99.90;;;;;;5062859;28;20048;-77
2023/09/08 04:08:24;;;;;;;8.32;4.00;;;17.20;99.90;;;;;;5065276;28;20128;-77
2023/09/08 04:10:51;;;;;;;6.75;4.03;;;17.20;99.90;;;;;;5047881;28;20041;-77
2023/09/08 04:13:18;;;;;;;7.57;3.95;;;17.20;99.90;;;;;;5074530;28;20488;-77
2023/09/08 04:15:45;;;;;;;9.88;4.32;;;17.20;99.90;;;;;;5065598;28;20541;-77
2023/09/08 04:18:13;;;;;;;9.13;5.03;;;17.20;99.90;;;;;;5045597;28;23033;-77
2023/09/08 04:20:40;;;;;;;12.68;4.88;;;17.20;99.90;;;;;;5061889;28;20380;-77
2023/09/08 04:23:07;;;;;;;8.80;4.60;;;17.10;99.90;;;;;;5067267;28;20179;-77
2023/09/08 04:25:36;;;;;;;7.22;3.92;;;17.10;99.90;;;;;;5075623;28;22860;-77
2023/09/08 04:28:04;;;;;;;9.50;5.10;;;17.10;99.90;;;;;;5069844;28;20043;-77
2023/09/08 04:30:32;;;;;;;10.77;4.95;;;17.10;99.90;;;;;;5053136;28;20049;-77
2023/09/08 04:32:59;;;;;;;7.00;4.13;;;17.10;99.90;;;;;;5065551;28;20044;-77
2023/09/08 04:35:26;;;;;;;12.60;4.90;;;17.10;99.90;;;;;;5056566;28;20094;-77
2023/09/08 04:37:54;;;;;;;8.07;5.10;;;17.20;99.90;;;;;;5065032;28;20521;-77
2023/09/08 04:40:21;;;;;;;9.27;4.63;;;17.10;99.90;;;;;;5057782;28;20049;-77
2023/09/08 04:42:48;;;;;;;7.55;4.68;;;17.10;99.90;;;;;;5056017;28;20037;-77
2023/09/08 04:45:15;;;;;;;11.75;4.22;;;17.20;99.90;;;;;;5078047;28;20048;-77
2023/09/08 04:47:43;;;;;;;7.85;4.40;;;17.10;99.90;;;;;;5061350;28;20036;-77
2023/09/08 04:50:10;;;;;;;11.32;5.07;;;17.10;99.90;;;;;;5062007;28;20055;-77
2023/09/08 04:52:38;;;;;;;9.38;4.88;;;17.20;99.90;;;;;;5066145;28;20041;-77
2023/09/08 04:55:06;;;;;;;9.48;4.68;;;17.20;99.90;;;;;;5064143;28;20047;-77
2023/09/08 04:57:33;;;;;;;7.03;4.20;;;17.20;99.90;;;;;;5067894;28;20047;-77
2023/09/08 05:00:02;;;;;;;10.80;4.53;;;17.20;99.90;;;;;;5062454;28;20036;-77
2023/09/08 05:02:31;;;;;;;8.43;5.28;;;17.20;99.90;;;;;;5050969;28;20040;-77
2023/09/08 05:05:04;;;;;;;8.05;4.40;;;17.30;99.90;;;;;;5050116;28;20573;-77
2023/09/08 05:07:32;;;;;;;9.45;4.22;;;17.30;99.90;;;;;;5075099;28;20047;-81
2023/09/08 05:09:59;;;;;;;8.82;4.53;;;17.30;99.90;;;;;;5045440;28;20439;-81
2023/09/08 05:12:29;;;;;;;8.63;4.80;;;17.30;99.90;;;;;;5068689;28;20127;-80
2023/09/08 05:15:00;;;;;;;8.30;4.72;;;17.30;99.90;;;;;;5071107;28;20044;-80
2023/09/08 05:17:28;;;;;;;7.78;5.28;;;17.40;99.90;;;;;;5059641;28;20081;-80
2023/09/08 05:19:55;;;;;;;8.70;5.07;;;17.40;99.90;;;;;;5060482;28;20041;-80
2023/09/08 05:22:23;;;;;;;9.57;4.60;;;17.40;99.90;;;;;;5068369;28;20044;-81
2023/09/08 05:24:53;;;;;;;10.25;5.18;;;17.40;99.90;;;;;;5060728;28;20056;-81
2023/09/08 05:27:21;;;;;;;7.93;4.85;;;17.40;99.90;;;;;;5046376;28;20045;-81
2023/09/08 05:29:49;;;;;;;9.00;4.80;;;17.40;99.90;;;;;;5076633;28;22365;-81
2023/09/08 05:32:17;;;;;;;10.65;4.50;;;17.50;99.90;;;;;;5054662;28;20062;-80
2023/09/08 05:34:44;;;;;;;9.32;5.05;;;17.50;99.90;;;;;;5062028;28;20136;-81
2023/09/08 05:37:12;;;;;;;12.57;5.15;;;17.60;99.90;;;;;;5061864;28;20522;-81
2023/09/08 05:39:39;;;;;;;9.18;5.40;;;17.70;99.90;;;;;;5065111;28;20068;-81
2023/09/08 05:42:06;;;;;;;11.13;5.13;;;17.80;99.90;;;;;;5042577;28;20051;-80
2023/09/08 05:44:34;;;;;;;9.75;5.00;;;17.80;99.90;;;;;;5063297;28;20049;-81
2023/09/08 05:47:01;;;;;;;11.18;5.13;;;17.90;99.90;;;;;;5051377;28;20064;-80
2023/09/08 05:49:28;;;;;;;7.63;4.38;;;18.00;99.90;;;;;;5052685;28;20068;-81
2023/09/08 05:51:56;;;;;;;9.35;5.10;;;18.00;99.90;;;;;;5058694;28;22432;-80
2023/09/08 05:54:23;;;;;;;8.13;4.75;;;18.10;99.90;;;;;;5056928;28;20503;-81
2023/09/08 05:56:50;;;;;;;8.45;5.10;;;18.20;99.90;;;;;;5072041;28;20048;-81
2023/09/08 05:59:18;;;;;;;9.25;5.03;;;18.30;99.90;;;;;;5060985;28;20114;-81
2023/09/08 06:01:45;;;;;;;8.32;4.80;;;18.40;99.90;;;;;;5057935;28;20115;-80
2023/09/08 06:04:13;;;;;;;7.32;5.00;;;18.50;99.90;;;;;;5070733;28;20052;-81
2023/09/08 06:06:40;;;;;;;8.50;4.65;;;18.60;99.90;;;;;;5061623;28;20048;-81
2023/09/08 06:09:08;;;;;;;10.82;4.82;;;18.70;99.90;;;;;;5065383;28;20048;-80
2023/09/08 06:11:36;;;;;;;8.35;4.93;;;18.80;99.90;;;;;;5046499;28;20059;-81
2023/09/08 06:14:04;;;;;;;7.40;4.88;;;18.90;99.90;;;;;;5049033;28;20057;-81
2023/09/08 06:16:37;;;;;;;8.55;4.95;;;19.10;99.90;;;;;;5059686;28;20044;-80
2023/09/08 06:19:06;;;;;;;8.02;4.50;;;19.20;99.90;;;;;;5057728;28;20068;-81
2023/09/08 06:21:33;;;;;;;9.18;5.10;;;19.30;99.90;;;;;;5061615;28;20985;-81
2023/09/08 06:24:01;;;;;;;8.75;5.10;;;19.40;99.90;;;;;;5066205;28;20045;-80
2023/09/08 06:26:28;;;;;;;9.63;4.32;;;19.50;99.90;;;;;;5078476;28;22857;-80
2023/09/08 06:28:56;;;;;;;9.18;4.68;;;19.70;99.90;;;;;;5062094;28;20135;-79
2023/09/08 06:31:23;;;;;;;8.10;4.60;;;19.80;99.90;;;;;;5072287;28;20099;-78
2023/09/08 06:33:51;;;;;;;10.88;4.60;;;19.90;99.80;;;;;;5076936;28;20040;-80
2023/09/08 06:36:20;;;;;;;8.45;4.70;;;20.00;99.00;;;;;;5059119;28;20041;-79
2023/09/08 06:38:48;;;;;;;8.35;4.50;;;20.20;98.50;;;;;;5075501;28;20415;-80
2023/09/08 06:41:15;;;;;;;7.43;4.28;;;20.30;97.90;;;;;;5056854;28;20056;-80
2023/09/08 06:43:42;;;;;;;8.05;4.03;;;20.40;97.50;;;;;;5054278;28;20057;-80
2023/09/08 06:46:15;;;;;;;8.40;3.95;;;20.50;96.90;;;;;;5070318;28;20049;-81
2023/09/08 06:48:42;;;;;;;7.88;3.95;;;20.70;97.10;;;;;;5057052;28;20491;-78
2023/09/08 06:51:10;;;;;;;7.97;4.50;;;20.80;96.60;;;;;;5070142;28;20743;-81
2023/09/08 06:53:38;;;;;;;9.15;4.28;;;20.80;95.80;;;;;;5059470;28;20048;-80
2023/09/08 06:56:06;;;;;;;7.57;4.05;;;21.00;96.20;;;;;;5071436;28;20049;-79
2023/09/08 06:58:33;;;;;;;7.72;4.07;;;21.20;95.50;;;;;;5055173;28;20056;-78
2023/09/08 07:01:02;;;;;;;8.25;3.90;;;21.30;95.10;;;;;;5053619;28;20060;-78
2023/09/08 07:03:36;;;;;;;6.45;3.90;;;21.30;93.60;;;;;;5041146;28;20048;-79
2023/09/08 07:06:06;;;;;;;6.55;3.65;;;21.40;93.00;;;;;;5043499;28;20059;-78
2023/09/08 07:08:33;;;;;;;7.78;3.97;;;21.60;92.70;;;;;;5056425;28;20041;-78
2023/09/08 07:11:01;;;;;;;5.07;3.35;;;21.60;92.30;;;;;;5069870;28;20048;-79
2023/09/08 07:13:29;;;;;;;8.38;4.15;;;21.70;91.50;;;;;;5048446;28;20099;-78
2023/09/08 07:15:58;;;;;;;6.82;3.92;;;21.80;92.10;;;;;;5060743;28;20519;-78
2023/09/08 07:18:25;;;;;;;6.35;3.63;;;21.90;91.00;;;;;;5060941;28;20055;-79
2023/09/08 07:20:53;;;;;;;8.40;4.22;;;22.00;90.60;;;;;;5047892;28;20040;-77
2023/09/08 07:23:21;;;;;;;7.05;3.88;;;22.10;90.80;;;;;;5062517;28;20033;-80
2023/09/08 07:25:49;;;;;;;7.28;4.10;;;22.20;90.40;;;;;;5073484;28;20130;-79
2023/09/08 07:28:19;;;;;;;6.25;3.95;;;22.30;90.30;;;;;;5069635;28;20392;-79
2023/09/08 07:30:49;;;;;;;6.07;3.67;;;22.30;88.70;;;;;;5055941;28;20041;-77
2023/09/08 07:33:19;;;;;;;5.07;3.58;;;22.30;87.50;;;;;;5071524;28;20055;-80
2023/09/08 07:35:46;;;;;;;5.28;3.22;;;22.50;89.00;;;;;;5066282;28;20036;-79
2023/09/08 07:38:13;;;;;;;7.78;3.38;;;22.60;87.60;;;;;;5059211;28;20048;-80
2023/09/08 07:40:41;;;;;;;7.65;4.57;;;22.60;87.30;;;;;;5070291;28;20049;-80
2023/09/08 07:43:08;;;;;;;6.32;3.72;;;22.70;86.10;;;;;;5052243;28;20101;-80
2023/09/08 07:45:36;;;;;;;6.05;3.58;;;22.70;85.50;;;;;;5045024;28;20072;-80
2023/09/08 07:48:03;;;;;;;6.53;3.85;;;22.80;85.20;;;;;;5063606;28;20092;-79
2023/09/08 07:50:31;;;;;;;5.88;3.30;;;22.80;85.10;;;;;;5059164;28;20064;-79
2023/09/08 07:52:58;;;;;;;6.40;3.50;;;23.00;84.10;;;;;;5053682;28;20063;-78
2023/09/08 07:55:28;;;;;;;5.78;3.75;;;23.10;84.10;;;;;;5058605;28;20144;-77
2023/09/08 07:57:57;;;;;;;7.20;3.40;;;23.10;83.10;;;;;;5057630;28;20051;-81
2023/09/08 08:00:24;;;;;;;6.18;3.40;;;23.10;82.60;;;;;;5071940;28;20101;-79
2023/09/08 08:02:55;;;;;;;10.88;4.63;;;23.30;84.10;;;;;;5067618;28;20103;-79
2023/09/08 08:05:22;;;;;;;5.05;3.33;;;23.40;83.10;;;;;;5071020;28;20117;-80
2023/09/08 08:19:52;;;;;;;5.15;3.70;;;23.80;81.00;;;;;;5056170;28;20052;-80
2023/09/08 08:22:19;;;;;;;5.80;3.58;;;24.00;80.60;;;;;;5059302;28;20092;-80
2023/09/08 08:24:47;;;;;;;5.78;3.20;;;23.90;79.60;;;;;;5058884;28;20043;-82
2023/09/08 08:27:14;;;;;;;7.05;3.42;;;24.00;80.90;;;;;;5060665;28;20068;-78
2023/09/08 08:29:41;;;;;;;5.28;3.60;;;24.10;79.50;;;;;;5060626;28;20049;-79
2023/09/08 08:32:09;;;;;;;7.03;3.33;;;24.10;79.90;;;;;;5060277;28;22667;-80
2023/09/08 08:34:36;;;;;;;7.57;3.38;;;24.20;79.30;;;;;;5061442;28;20049;-79
2023/09/08 08:37:03;;;;;;;7.78;3.83;;;24.20;79.20;;;;;;5063218;28;20070;-77
2023/09/08 08:39:30;;;;;;;7.90;3.50;;;24.30;79.70;;;;;;5069896;28;20065;-81
2023/09/08 08:41:57;;;;;;;6.20;3.08;;;24.30;78.40;;;;;;5062249;28;20048;-79
2023/09/08 08:44:25;;;;;;;5.38;3.22;;;24.30;78.30;;;;;;5054149;28;20061;-79
2023/09/08 08:46:54;;;;;;;5.07;3.60;;;24.40;78.90;;;;;;5058285;28;20060;-80
2023/09/08 08:49:23;;;;;;;6.60;3.20;;;24.30;77.00;;;;;;5058279;28;20047;-78
2023/09/08 08:51:51;;;;;;;6.60;3.20;;;24.30;77.80;;;;;;5053594;28;20074;-81
2023/09/08 08:54:20;;;;;;;5.78;3.10;;;24.40;77.40;;;;;;5063788;28;20132;-81
2023/09/08 08:56:48;;;;;;;7.13;3.80;;;24.30;76.60;;;;;;5055923;28;20079;-79
2023/09/08 08:59:16;;;;;;;6.03;3.03;;;24.50;78.10;;;;;;5068011;28;20056;-80
2023/09/08 09:01:44;;;;;;;5.97;3.05;;;24.30;76.60;;;;;;5060123;28;20131;-78
2023/09/08 09:04:12;;;;;;;6.88;3.47;;;24.40;76.80;;;;;;5076687;28;21043;-79
2023/09/08 09:06:40;;;;;;;5.75;2.67;;;24.40;75.70;;;;;;5056326;28;21142;-79
2023/09/08 09:09:08;;;;;;;5.22;2.88;;;24.50;74.80;;;;;;5075098;28;20171;-81
2023/09/08 09:11:35;;;;;;;6.10;3.10;;;24.50;75.80;;;;;;5052506;28;20045;-82
2023/09/08 09:14:04;;;;;;;8.35;2.90;;;24.60;76.10;;;;;;5060835;28;20087;-80
2023/09/08 09:16:41;;;;;;;5.78;3.28;;;24.60;74.40;;;;;;5057680;28;20125;-81
2023/09/08 09:19:08;;;;;;;4.35;2.90;;;24.60;75.00;;;;;;5069815;28;20065;-80
2023/09/08 09:21:43;;;;;;;7.45;3.30;;;24.60;74.30;;;;;;5061111;28;20625;-78
2023/09/08 09:24:15;;;;;;;5.28;2.67;;;24.60;74.40;;;;;;5073577;28;20072;-80
2023/09/08 09:26:46;;;;;;;9.85;3.33;;;24.60;73.60;;;;;;5060496;28;20056;-78
2023/09/08 09:29:14;;;;;;;5.90;2.72;;;24.80;74.40;;;;;;5056131;28;20035;-80
2023/09/08 09:32:05;;;;;;;5.40;3.40;;;24.90;74.50;;;;;;5070183;28;20107;-80
2023/09/08 09:34:35;;;;;;;5.07;3.13;;;25.00;73.40;;;;;;5067905;28;20040;-78
2023/09/08 09:37:05;;;;;;;4.72;2.70;;;25.10;74.80;;;;;;5061423;28;20060;-79
2023/09/08 09:39:32;;;;;;;4.68;2.83;;;25.10;72.80;;;;;;5070946;28;20048;-81
2023/09/08 09:41:59;;;;;;;4.60;2.42;;;25.00;72.30;;;;;;5072906;28;20131;-79
2023/09/08 09:44:26;;;;;;;5.18;2.70;;;25.00;73.90;;;;;;5055477;28;20040;-81
2023/09/08 09:46:54;;;;;;;5.50;2.80;;;25.10;72.40;;;;;;5053518;28;20044;-78
2023/09/08 09:49:21;;;;;;;4.70;2.70;;;25.10;72.10;;;;;;5052241;28;20060;-80
2023/09/08 09:51:52;;;;;;;5.78;3.10;;;25.00;71.60;;;;;;5059819;28;20047;-79
2023/09/08 09:54:20;;;;;;;4.85;3.33;;;24.90;71.70;;;;;;5071347;28;20982;-77
2023/09/08 09:56:47;;;;;;;5.90;3.50;;;25.00;72.10;;;;;;5060782;28;20527;-80
2023/09/08 09:59:17;;;;;;;4.88;2.55;;;25.20;73.40;;;;;;5058149;28;20045;-79
2023/09/08 10:01:46;;;;;;;4.72;2.85;;;25.30;73.30;;;;;;5069503;28;20491;-79
2023/09/08 10:04:15;;;;;;;6.20;3.08;;;25.40;73.00;;;;;;5061406;28;20044;-78
2023/09/08 10:06:45;;;;;;;5.43;3.33;;;25.40;72.00;;;;;;5046374;28;20048;-80
2023/09/08 10:09:16;;;;;;;5.10;3.22;;;25.30;71.60;;;;;;5070060;28;20202;-82
2023/09/08 10:11:46;;;;;;;7.15;3.58;;;25.40;73.00;;;;;;5043760;28;20052;-79
2023/09/08 10:14:18;;;;;;;5.82;3.30;;;25.30;71.80;;;;;;5057422;28;20135;-80
2023/09/08 10:16:49;;;;;;;;;;;25.40;71.80;;;;;;5044895;28;22878;-79
2023/09/08 10:19:17;;;;;;;4.93;2.97;;;25.40;70.90;;;;;;5072621;28;19929;-80
2023/09/08 10:21:48;;;;;;;5.80;3.28;;;25.30;70.30;;;;;;5054672;28;20059;-79
2023/09/08 10:24:23;;;;;;;6.55;3.47;;;25.30;70.40;;;;;;5061751;28;20053;-79
2023/09/08 10:27:11;;;;;;;5.22;3.17;;;25.40;71.40;;;;;;5053781;28;20059;-79
2023/09/08 10:29:39;;;;;;;6.50;3.15;;;25.60;71.40;;;;;;5055165;28;20060;-78
2023/09/08 10:32:11;;;;;;;4.15;2.70;;;25.70;70.90;;;;;;5056282;28;20048;-80
2023/09/08 10:34:40;;;;;;;4.85;3.50;;;25.70;70.50;;;;;;5048397;28;20048;-79
2023/09/08 10:37:21;;;;;;;5.03;2.45;;;25.60;70.10;;;;;;5068190;28;20099;-80
2023/09/08 10:39:48;;;;;;;4.28;2.92;;;25.70;69.10;;;;;;5045772;28;20458;-79
2023/09/08 10:42:19;;;;;;;3.38;2.10;;;25.80;68.70;;;;;;5041233;28;20186;-80
2023/09/08 10:44:49;;;;;;;4.80;2.58;;;25.80;66.80;;;;;;5056327;28;20052;-78
2023/09/08 10:47:23;;;;;;;3.95;2.75;;;25.90;65.80;;;;;;5056521;28;20092;-78
2023/09/08 10:49:53;;;;;;;4.72;2.50;;;25.80;65.80;;;;;;5056825;28;20057;-81
2023/09/08 10:52:25;;;;;;;4.85;2.70;;;25.90;67.40;;;;;;5055613;28;20052;-77
2023/09/08 10:54:54;;;;;;;6.53;2.90;;;25.90;65.10;;;;;;5047254;28;20041;-79
2023/09/08 10:57:24;;;;;;;7.18;2.70;;;25.80;66.30;;;;;;5050830;28;20044;-79
2023/09/08 11:00:04;;;;;;;5.35;2.75;;;25.80;66.60;;;;;;5069603;28;20508;-79
2023/09/08 11:02:47;;;;;;;6.38;2.63;;;26.00;67.20;;;;;;5053189;28;20127;-78
2023/09/08 11:05:16;;;;;;;6.45;3.60;;;26.00;66.50;;;;;;5055362;28;20087;-80
2023/09/08 11:07:44;;;;;;;3.67;2.28;;;25.80;65.60;;;;;;5074318;28;20187;-79
2023/09/08 11:10:12;;;;;;;5.22;2.47;;;25.90;66.40;;;;;;5050010;28;20077;-79
2023/09/08 11:12:40;;;;;;;5.32;2.78;;;26.00;66.50;;;;;;5073168;28;20064;-81
2023/09/08 11:15:08;;;;;;;5.85;2.70;;;26.00;66.20;;;;;;5054467;28;20047;-81
2023/09/08 11:17:39;;;;;;;5.93;2.55;;;26.00;65.90;;;;;;5057473;28;20054;-79
2023/09/08 11:20:08;;;;;;;8.07;2.88;;;25.90;65.80;;;;;;5061667;28;20044;-80
2023/09/08 11:22:38;;;;;;;4.47;2.63;;;25.90;66.80;;;;;;5069136;28;20072;-82
2023/09/08 11:25:12;;;;;;;6.55;2.67;;;26.10;67.40;;;;;;5060792;28;20071;-80
2023/09/08 11:27:40;;;;;;;4.65;2.40;;;26.20;67.10;;;;;;5059063;28;20041;-80
2023/09/08 11:30:12;;;;;;;5.13;2.78;;;26.10;65.80;;;;;;5043015;28;20044;-79
2023/09/08 11:32:39;;;;;;;6.35;2.17;;;26.10;65.60;;;;;;5067802;28;20048;-78
2023/09/08 11:35:09;;;;;;;4.28;2.30;;;26.10;66.90;;;;;;5061825;28;20503;-78
2023/09/08 11:37:42;;;;;;;3.08;2.28;;;26.30;65.40;;;;;;5056982;28;20412;-81
2023/09/08 11:40:12;;;;;;;4.22;2.67;;;26.30;64.90;;;;;;5062563;28;20138;-80
2023/09/08 11:42:44;;;;;;;6.38;2.63;;;26.20;64.80;;;;;;5075433;28;20044;-79
2023/09/08 11:45:13;;;;;;;5.40;2.05;;;26.30;64.50;;;;;;5070018;28;20102;-79
2023/09/08 11:47:42;;;;;;;5.72;2.22;;;26.30;63.20;;;;;;5071381;28;20036;-78
2023/09/08 11:50:15;;;;;;;3.78;2.42;;;26.30;62.50;;;;;;5057864;28;20044;-79
2023/09/08 11:52:48;;;;;;;6.07;2.78;;;26.40;63.00;;;;;;5060792;28;20045;-78
2023/09/08 11:55:17;;;;;;;4.85;2.97;;;26.50;63.90;;;;;;5059688;28;20140;-79
2023/09/08 11:57:48;;;;;;;4.10;2.45;;;26.40;62.30;;;;;;5052245;28;20036;-79
2023/09/08 12:00:18;;;;;;;3.65;2.25;;;26.50;64.50;;;;;;5059146;28;20079;-79
2023/09/08 12:02:45;;;;;;;4.55;2.78;;;26.50;64.80;;;;;;5060919;28;20044;-80
2023/09/08 12:05:27;;;;;;;3.60;2.50;;;26.50;64.40;;;;;;5071935;28;20181;-78
2023/09/08 12:07:58;;;;;;;3.63;2.03;;;26.50;63.70;;;;;;5067765;28;20048;-79
2023/09/08 12:10:25;;;;;;;3.53;2.42;;;26.40;63.10;;;;;;5060527;28;20113;-77
2023/09/08 12:12:55;;;;;;;6.47;2.40;;;26.40;62.40;;;;;;5060807;28;20040;-79
2023/09/08 12:15:33;;;;;;;4.47;2.50;;;26.40;61.80;;;;;;5057253;28;20049;-79
2023/09/08 12:18:01;;;;;;;5.45;2.55;;;26.40;62.70;;;;;;5074414;28;20461;-78
2023/09/08 12:20:29;;;;;;;5.80;2.33;;;26.40;63.70;;;;;;5068066;28;20061;-81
2023/09/08 12:23:05;;;;;;;6.65;2.60;;;26.50;64.80;;;;;;5056188;28;20056;-79
2023/09/08 12:25:33;;;;;;;3.85;2.03;;;26.50;64.90;;;;;;5060613;28;20127;-77
2023/09/08 12:28:04;;;;;;;6.45;2.40;;;26.60;63.80;;;;;;5073183;28;20040;-79
2023/09/08 12:30:33;;;;;;;3.90;2.20;;;26.60;63.90;;;;;;5044616;28;20430;-79
2023/09/08 12:33:01;;;;;;;4.00;2.30;;;26.70;63.00;;;;;;5044299;28;20110;-79
2023/09/08 12:35:29;;;;;;;5.97;2.50;;;26.60;63.40;;;;;;5058631;28;20052;-77
2023/09/08 12:38:00;;;;;;;5.32;2.70;;;26.70;63.10;;;;;;5055130;28;20053;-79
2023/09/08 12:40:28;;;;;;;5.50;2.55;;;26.60;62.20;;;;;;5061734;28;20140;-79
2023/09/08 12:42:55;;;;;;;3.53;2.40;;;26.60;61.70;;;;;;5059288;28;23477;-80
2023/09/08 12:45:33;;;;;;;3.35;2.28;;;26.70;61.40;;;;;;5060876;28;20453;-83
2023/09/08 12:48:02;;;;;;;4.65;2.40;;;26.60;60.60;;;;;;5058586;28;20999;-78
2023/09/08 12:50:30;;;;;;;4.68;2.53;;;26.60;60.90;;;;;;5072837;28;20051;-79
2023/09/08 12:52:57;;;;;;;4.93;3.15;;;26.50;61.90;;;;;;5063226;28;20151;-80
2023/09/08 12:55:24;;;;;;;5.15;2.38;;;26.60;61.60;;;;;;5058478;28;20060;-77
2023/09/08 12:57:55;;;;;;;3.30;2.30;;;26.60;62.10;;;;;;5051334;28;20044;-77
2023/09/08 13:00:23;;;;;;;3.67;2.30;;;26.60;62.00;;;;;;5071763;28;20068;-80
2023/09/08 13:02:50;;;;;;;5.78;2.88;;;26.70;62.50;;;;;;5074424;28;20457;-79
2023/09/08 13:05:19;;;;;;;5.70;3.05;;;26.70;62.10;;;;;;5045858;28;20395;-79